Terminal Aerodrome Forecast
Issued by NWS

Home | Current Version | Previous Version | Text Only | Print | Product List | Glossary On
Versions: 1 2 3 4 5 6 7 8 9 10 11 12 13 14 15 16 17 18 19
000
FTUS44 KCRP 221700
TAFALI
TAF
KALI 221735Z 2218/2318 15014G18KT P6SM FEW040 FEW250
     FM230200 15008KT P6SM FEW015
      TEMPO 2310/2314 5SM BR
     FM231400 VRB06KT P6SM FEW030=

USA.gov is the U.S. government's official web portal to all federal, state and local government web resources and services.